B Gas Master — 9HA2718 — position and weather

sailwx.info

Track history (hours):
 
Tides and Currents Weather Stations Pressure Air Temp Water Temp Dewpoint Dewpoint Depression Visibility Wind Speed Wind Dir Waves Ship Positions

B Gas Master

Last reported at 2017-Jun-26 13:45 UTC. Time now 2017-Jun-26 19:09 UTC.
Position N 58°21' E 011°26'.

Length 88 m; draft 5.6 m.

Type: Ship (hazmat cat C). MMSI: 215389000.

Date/timePositionNaut miles runAvg speedWind from/ knotsBaromVisibWave heightAir tempDewpointWater temp
2017-Jun-26 13:45N 58°21' E 011°26'1 3.4
2017-Jun-26 13:30N 58°21' E 011°25'510.8
2017-Jun-26 13:00N 58°17' E 011°18'713.2
2017-Jun-26 12:30N 58°13' E 011°07'713.1
2017-Jun-26 12:00N 58°10' E 010°57'713.1
2017-Jun-26 11:30N 58°06' E 010°47'611.4
2017-Jun-26 10:59N 58°03' E 010°37'611.4
2017-Jun-26 10:29N 57°59' E 010°29'611.9
2017-Jun-26 09:59N 57°56' E 010°20'4211.9
2017-Jun-26 06:25N 57°34' E 009°11'512.0
2017-Jun-26 05:59N 57°31' E 009°03'612.0
2017-Jun-26 05:29N 57°28' E 008°54'612.4
2017-Jun-26 05:00N 57°24' E 008°45'612.2
2017-Jun-26 04:30N 57°22' E 008°35'25912.3
2017-Jun-25 07:30N 53°37' E 004°50'612.3
2017-Jun-25 07:00N 53°31' E 004°48'611.1
2017-Jun-25 06:30N 53°26' E 004°44'713.8
2017-Jun-25 06:00N 53°20' E 004°39'714.3
2017-Jun-25 05:30N 53°13' E 004°33'714.1
2017-Jun-25 05:00N 53°07' E 004°27'714.5
2017-Jun-25 04:30N 53°01' E 004°21'714.3
2017-Jun-25 04:00N 52°54' E 004°16'714.3
2017-Jun-25 03:30N 52°48' E 004°11'714.3
2017-Jun-25 03:00N 52°42' E 004°04'714.4
2017-Jun-25 02:30N 52°37' E 003°56'714.2
2017-Jun-25 02:00N 52°32' E 003°47'4614.7
2017-Jun-24 22:54N 51°50' E 003°19'0 0.0
2017-Jun-24 22:30N 51°50' E 003°19'4 7.0
2017-Jun-24 22:00N 51°47' E 003°17'8 8.8
2017-Jun-24 21:03N 51°39' E 003°21'111.1
2017-Jun-24 20:58N 51°38' E 003°21'511.2
2017-Jun-24 20:30N 51°33' E 003°25'510.2
2017-Jun-24 19:58N 51°29' E 003°30'510.9
2017-Jun-24 19:31N 51°26' E 003°37'4 7.0
2017-Jun-24 18:59N 51°28' E 003°42'0 0.0
2017-Jun-24 18:20N 51°28' E 003°42'0 0.0
2017-Jun-24 17:20N 51°28' E 003°42'0 0.0
2017-Jun-24 16:50N 51°28' E 003°42'0 0.0
2017-Jun-24 16:26N 51°28' E 003°42'0 0.0
2017-Jun-24 15:50N 51°28' E 003°42'0 0.0
2017-Jun-24 15:26N 51°28' E 003°42'0 0.0
2017-Jun-24 14:56N 51°28' E 003°42'0 0.0
2017-Jun-24 13:56N 51°28' E 003°42'0 0.0
2017-Jun-24 13:02N 51°28' E 003°42'0 0.0
2017-Jun-24 12:38N 51°28' E 003°42'0 0.0
2017-Jun-24 12:14N 51°28' E 003°42'0 0.0
2017-Jun-24 11:26N 51°28' E 003°42'0 0.0
2017-Jun-24 10:50N 51°28' E 003°42'0 0.0
2017-Jun-24 10:20N 51°28' E 003°42'0 0.0
2017-Jun-24 09:32N 51°28' E 003°42'0 0.0
2017-Jun-24 09:26N 51°28' E 003°42'0 0.0
2017-Jun-24 07:32N 51°28' E 003°42'0 0.2
2017-Jun-24 07:30N 51°28' E 003°42'0 0.6
2017-Jun-24 07:00N 51°28' E 003°42'4 7.7
2017-Jun-24 06:30N 51°24' E 003°43'4 7.4
2017-Jun-24 06:00N 51°21' E 003°46'0 0.0
2017-Jun-24 05:17N 51°21' E 003°46'0 0.0
2017-Jun-24 04:59N 51°21' E 003°46'0 0.0
2017-Jun-24 04:29N 51°21' E 003°46'0 0.0
2017-Jun-24 03:59N 51°21' E 003°46'0 0.0
2017-Jun-24 03:05N 51°21' E 003°46'0 0.0
2017-Jun-24 02:53N 51°21' E 003°46'0 0.0
2017-Jun-24 02:29N 51°21' E 003°46'0 0.0
2017-Jun-24 01:59N 51°21' E 003°46'0 0.0
2017-Jun-24 01:29N 51°21' E 003°46'0 0.0
2017-Jun-24 00:41N 51°21' E 003°46'0 0.0
2017-Jun-24 00:23N 51°21' E 003°46'0 0.0
2017-Jun-23 23:59N 51°21' E 003°46'0 0.0
2017-Jun-23 23:29N 51°21' E 003°46'0 0.0
2017-Jun-23 22:59N 51°21' E 003°46'0 0.0
2017-Jun-23 22:23N 51°21' E 003°46'0 0.0
2017-Jun-23 21:59N 51°21' E 003°46'0 0.0
2017-Jun-23 21:29N 51°21' E 003°46'0 0.0
2017-Jun-23 20:29N 51°21' E 003°46'0 0.0
2017-Jun-23 19:59N 51°21' E 003°46'0 0.0
2017-Jun-23 19:11N 51°21' E 003°46'0 0.0
2017-Jun-23 18:59N 51°21' E 003°46'0 0.0
2017-Jun-23 18:29N 51°21' E 003°46'0 0.0
2017-Jun-23 17:59N 51°21' E 003°46'0 0.0
2017-Jun-23 17:29N 51°21' E 003°46'0 0.0
2017-Jun-23 16:47N 51°21' E 003°46'0 0.0
2017-Jun-23 16:29N 51°21' E 003°46'0 0.0
2017-Jun-23 15:23N 51°21' E 003°46'0 0.2
2017-Jun-23 15:00N 51°21' E 003°46'9 9.2
2017-Jun-23 14:00N 51°26' E 003°34'510.5
2017-Jun-23 13:30N 51°30' E 003°28'5 9.5
2017-Jun-23 13:00N 51°34' E 003°24'917.4
2017-Jun-23 12:30N 51°42' E 003°18'1 2.6
2017-Jun-23 11:59N 51°43' E 003°17'5 9.8
2017-Jun-23 11:31N 51°47' E 003°21'3 5.7
2017-Jun-23 11:00N 51°49' E 003°24'0 0.0
2017-Jun-23 10:30N 51°49' E 003°24'0 0.2
2017-Jun-23 10:00N 51°49' E 003°24'0 0.1
2017-Jun-23 09:29N 51°49' E 003°24'0 0.1
2017-Jun-23 09:00N 51°49' E 003°24'0 0.0
2017-Jun-23 08:30N 51°49' E 003°24'0 0.0
2017-Jun-23 06:02N 51°49' E 003°24'0 0.0
2017-Jun-23 06:00N 51°49' E 003°24'0 0.0
2017-Jun-23 05:30N 51°49' E 003°24'0 0.2
2017-Jun-23 05:00N 51°49' E 003°24'0 0.0
2017-Jun-23 04:30N 51°49' E 003°24'0 0.0
2017-Jun-23 04:00N 51°49' E 003°24'0 0.0
2017-Jun-23 03:29N 51°49' E 003°24'0 0.0
2017-Jun-23 03:00N 51°49' E 003°24'0 0.0
2017-Jun-23 02:29N 51°49' E 003°24'0 0.0
2017-Jun-23 02:00N 51°49' E 003°24'0 0.0
2017-Jun-23 01:30N 51°49' E 003°24'0 0.0
2017-Jun-23 01:00N 51°49' E 003°24'0 0.0
2017-Jun-23 00:30N 51°49' E 003°24'0 0.0
2017-Jun-23 00:00N 51°49' E 003°24'0 0.0
2017-Jun-22 23:30N 51°49' E 003°24'0 0.1
2017-Jun-22 23:00N 51°49' E 003°24'0 0.0
2017-Jun-22 22:29N 51°49' E 003°24'0 0.2
2017-Jun-22 22:00N 51°49' E 003°24'0 0.0
2017-Jun-22 21:30N 51°49' E 003°24'0 0.0
2017-Jun-22 21:00N 51°49' E 003°24'0 0.0
2017-Jun-22 20:30N 51°49' E 003°24'0 0.0
2017-Jun-22 20:00N 51°49' E 003°24'0 0.0
2017-Jun-22 19:29N 51°49' E 003°24'0 0.0
2017-Jun-22 19:00N 51°48' E 003°24'0 0.4
2017-Jun-22 18:30N 51°49' E 003°24'0 0.0
2017-Jun-22 18:00N 51°49' E 003°24'0 0.0
2017-Jun-22 17:30N 51°49' E 003°24'0 0.0
2017-Jun-22 14:40N 51°49' E 003°24'0 0.0
2017-Jun-22 13:50N 51°49' E 003°24'0 0.0
2017-Jun-22 13:30N 51°49' E 003°24'0 0.0
2017-Jun-22 13:00N 51°49' E 003°24'0 0.0
2017-Jun-22 12:30N 51°49' E 003°24'0 0.0
2017-Jun-22 12:00N 51°49' E 003°24'0 0.1
2017-Jun-22 11:30N 51°49' E 003°24'0 0.0
2017-Jun-22 11:00N 51°49' E 003°24'0 0.1
2017-Jun-22 10:30N 51°49' E 003°24'0 0.0
2017-Jun-22 10:00N 51°49' E 003°24'0 0.1
2017-Jun-22 09:30N 51°48' E 003°24'0 0.0
2017-Jun-22 09:00N 51°48' E 003°24'0 0.1
2017-Jun-22 08:29N 51°48' E 003°24'0 0.0
2017-Jun-22 08:00N 51°48' E 003°24'0 0.2
2017-Jun-22 07:30N 51°49' E 003°24'4 8.8
2017-Jun-22 07:00N 51°51' E 003°18'1021.0
2017-Jun-22 06:30N 52°02' E 003°20'1017.3
2017-Jun-22 05:56N 52°11' E 003°23'0 0.0
2017-Jun-22 05:30N 52°11' E 003°23'610.6
2017-Jun-22 04:59N 52°17' E 003°24'511.1
2017-Jun-22 04:30N 52°22' E 003°27'611.5
2017-Jun-22 04:00N 52°27' E 003°28'612.1
2017-Jun-22 03:28N 52°34' E 003°30'611.8
2017-Jun-22 03:00N 52°39' E 003°33'611.9
2017-Jun-22 02:30N 52°43' E 003°40'611.9
2017-Jun-22 01:59N 52°48' E 003°46'1311.8
2017-Jun-22 00:53N 52°58' E 004°00'511.9
2017-Jun-22 00:26N 53°02' E 004°07'812.5
2017-Jun-21 23:50N 53°06' E 004°16'413.2
2017-Jun-21 23:30N 53°09' E 004°22'713.3
2017-Jun-21 23:00N 53°15' E 004°29'713.6
2017-Jun-21 22:30N 53°21' E 004°32'713.8
2017-Jun-21 22:00N 53°28' E 004°36'713.5
2017-Jun-21 21:30N 53°34' E 004°39'713.4
2017-Jun-21 21:00N 53°40' E 004°42'713.3
2017-Jun-21 20:30N 53°47' E 004°47'14112.8
2017-Jun-21 09:29N 55°50' E 006°45'713.0
2017-Jun-21 08:59N 55°55' E 006°52'613.0
2017-Jun-21 08:30N 56°00' E 006°58'713.0
2017-Jun-21 08:00N 56°06' E 007°04'158 9.9
2017-Jun-20 16:02N 57°59' E 010°27'010.8
2017-Jun-20 16:00N 57°60' E 010°28'510.7
2017-Jun-20 15:30N 58°02' E 010°36'510.7
2017-Jun-20 15:00N 58°05' E 010°45'1111.2
2017-Jun-20 14:00N 58°11' E 011°02'611.1
2017-Jun-20 13:29N 58°15' E 011°12'510.1
2017-Jun-20 13:00N 58°18' E 011°19'510.0
2017-Jun-20 12:30N 58°21' E 011°25'1 0.0
2017-Jun-19 11:20N 58°21' E 011°26'1 2.3
2017-Jun-19 10:57N 58°21' E 011°25'2 5.3
2017-Jun-19 10:30N 58°20' E 011°21'0 0.2
2017-Jun-19 09:58N 58°20' E 011°21'0 0.0
2017-Jun-19 09:28N 58°20' E 011°21'0 0.0
2017-Jun-19 08:58N 58°20' E 011°21'0 0.0
2017-Jun-19 08:28N 58°20' E 011°21'0 0.0
2017-Jun-19 07:59N 58°20' E 011°21'0 0.1
2017-Jun-19 07:28N 58°20' E 011°21'0 0.0
2017-Jun-19 06:58N 58°20' E 011°21'0 0.0
2017-Jun-19 06:28N 58°20' E 011°21'0 0.0
2017-Jun-19 05:58N 58°20' E 011°21'0 0.0
2017-Jun-19 05:28N 58°20' E 011°21'0 0.0
2017-Jun-19 04:58N 58°20' E 011°21'0 0.0
2017-Jun-19 04:28N 58°20' E 011°21'0 0.0
2017-Jun-19 03:58N 58°20' E 011°21'0 0.0
2017-Jun-19 03:28N 58°20' E 011°21'0 0.0
2017-Jun-19 02:58N 58°20' E 011°21'0 0.0
2017-Jun-19 02:28N 58°20' E 011°21'0 0.0
2017-Jun-19 01:58N 58°20' E 011°21'0 0.0
2017-Jun-19 01:28N 58°20' E 011°21'0 0.0
2017-Jun-19 00:58N 58°20' E 011°21'0 0.0
2017-Jun-19 00:28N 58°20' E 011°21'0 0.0
2017-Jun-18 23:58N 58°20' E 011°21'0 0.0
2017-Jun-18 23:28N 58°20' E 011°21'0 0.0
2017-Jun-18 22:58N 58°20' E 011°21'0 0.0
2017-Jun-18 22:28N 58°20' E 011°21'0 0.0
2017-Jun-18 21:58N 58°20' E 011°21'0 0.0
2017-Jun-18 21:28N 58°20' E 011°21'0 0.0
2017-Jun-18 20:58N 58°20' E 011°21'0 0.0
2017-Jun-18 20:28N 58°20' E 011°21'0 0.0
2017-Jun-18 19:58N 58°20' E 011°21'0 0.0
2017-Jun-18 19:28N 58°20' E 011°21'0 0.0
2017-Jun-18 18:58N 58°20' E 011°21'0 0.0
2017-Jun-18 18:28N 58°20' E 011°21'0 0.0
2017-Jun-18 17:58N 58°20' E 011°21'2 5.0
2017-Jun-18 17:30N 58°18' E 011°19'612.3
2017-Jun-18 17:00N 58°14' E 011°09'611.5
2017-Jun-18 16:30N 58°11' E 011°01'713.5
2017-Jun-18 16:00N 58°07' E 010°50'713.4
2017-Jun-18 15:30N 58°04' E 010°39'713.6
2017-Jun-18 15:00N 58°00' E 010°28'1613.5
2017-Jun-18 13:49N 57°51' E 010°03'15712.8
2017-Jun-18 01:32N 55°53' E 006°55'013.2
2017-Jun-18 01:30N 55°52' E 006°54'713.2
2017-Jun-18 00:58N 55°46' E 006°48'613.1
2017-Jun-18 00:30N 55°41' E 006°43'913.2
2017-Jun-17 23:49N 55°33' E 006°35'513.1
2017-Jun-17 23:25N 55°29' E 006°30'613.2
2017-Jun-17 22:59N 55°24' E 006°25'14813.0
2017-Jun-17 11:34N 53°11' E 004°32'114.5
2017-Jun-17 11:31N 53°10' E 004°31'714.3
2017-Jun-17 11:00N 53°04' E 004°25'713.8
2017-Jun-17 10:30N 52°58' E 004°19'714.1
2017-Jun-17 10:00N 52°51' E 004°15'714.0
2017-Jun-17 09:30N 52°46' E 004°08'714.0
2017-Jun-17 09:01N 52°40' E 004°02'714.1
2017-Jun-17 08:30N 52°34' E 003°56'714.1
2017-Jun-17 08:01N 52°27' E 003°53'714.4
2017-Jun-17 07:30N 52°20' E 003°52'713.7
2017-Jun-17 07:00N 52°13' E 003°53'713.8
2017-Jun-17 06:30N 52°06' E 003°55'510.2
2017-Jun-17 06:00N 52°01' E 003°58'611.4
2017-Jun-17 05:31N 51°59' E 004°06'611.1
2017-Jun-17 05:01N 51°56' E 004°14'4 8.0
2017-Jun-17 04:31N 51°53' E 004°18'0 1.0
2017-Jun-17 04:00N 51°53' E 004°18'0 0.0
2017-Jun-17 03:30N 51°53' E 004°18'0 0.0
2017-Jun-17 03:00N 51°53' E 004°18'0 0.0
2017-Jun-17 02:30N 51°53' E 004°18'0 0.0
2017-Jun-17 02:00N 51°53' E 004°18'0 0.0
2017-Jun-17 01:30N 51°53' E 004°18'0 0.0
2017-Jun-17 01:00N 51°53' E 004°18'0 0.0
2017-Jun-17 00:30N 51°53' E 004°18'0 0.0
2017-Jun-17 00:00N 51°53' E 004°18'0 0.0
2017-Jun-16 23:30N 51°53' E 004°18'0 0.0
2017-Jun-16 23:00N 51°53' E 004°18'0 0.0
2017-Jun-16 22:30N 51°53' E 004°18'0 0.0
2017-Jun-16 21:55N 51°53' E 004°18'0 0.0
2017-Jun-16 21:30N 51°53' E 004°18'0 0.0
2017-Jun-16 21:00N 51°53' E 004°18'0 0.0
2017-Jun-16 20:30N 51°53' E 004°18'0 0.0
2017-Jun-16 20:00N 51°53' E 004°18'0 0.0
2017-Jun-16 19:30N 51°53' E 004°18'0 0.0
2017-Jun-16 19:00N 51°53' E 004°18'0 0.0
2017-Jun-16 18:30N 51°53' E 004°18'0 0.0
2017-Jun-16 18:00N 51°53' E 004°18'0 0.0
2017-Jun-16 17:30N 51°53' E 004°18'0 0.0
2017-Jun-16 17:00N 51°53' E 004°18'0 0.0
2017-Jun-16 16:30N 51°53' E 004°18'0 0.0
2017-Jun-16 16:00N 51°53' E 004°18'0 0.0
2017-Jun-16 15:30N 51°53' E 004°18'0 0.0
2017-Jun-16 15:00N 51°53' E 004°18'0 0.0
2017-Jun-16 14:30N 51°53' E 004°18'  
Track history (hours):
 
Tides and Currents Weather Stations Pressure Air Temp Water Temp Dewpoint Dewpoint Depression Visibility Wind Speed Wind Dir Waves Ship Positions

B Gas Master

Last reported at 2017-Jun-26 13:45 UTC. Time now 2017-Jun-26 19:09 UTC.
Position N 58°21' E 011°26'.

Length 88 m; draft 5.6 m.

Type: Ship (hazmat cat C). MMSI: 215389000.

Date/timePositionNaut miles runAvg speedWind from/ knotsBaromVisibWave heightAir tempDewpointWater temp
2017-Jun-26 13:45N 58°21' E 011°26'1 3.4
2017-Jun-26 13:30N 58°21' E 011°25'510.8
2017-Jun-26 13:00N 58°17' E 011°18'713.2
2017-Jun-26 12:30N 58°13' E 011°07'713.1
2017-Jun-26 12:00N 58°10' E 010°57'713.1
2017-Jun-26 11:30N 58°06' E 010°47'611.4
2017-Jun-26 10:59N 58°03' E 010°37'611.4
2017-Jun-26 10:29N 57°59' E 010°29'611.9
2017-Jun-26 09:59N 57°56' E 010°20'4211.9
2017-Jun-26 06:25N 57°34' E 009°11'512.0
2017-Jun-26 05:59N 57°31' E 009°03'612.0
2017-Jun-26 05:29N 57°28' E 008°54'612.4
2017-Jun-26 05:00N 57°24' E 008°45'612.2
2017-Jun-26 04:30N 57°22' E 008°35'25912.3
2017-Jun-25 07:30N 53°37' E 004°50'612.3
2017-Jun-25 07:00N 53°31' E 004°48'611.1
2017-Jun-25 06:30N 53°26' E 004°44'713.8
2017-Jun-25 06:00N 53°20' E 004°39'714.3
2017-Jun-25 05:30N 53°13' E 004°33'714.1
2017-Jun-25 05:00N 53°07' E 004°27'714.5
2017-Jun-25 04:30N 53°01' E 004°21'714.3
2017-Jun-25 04:00N 52°54' E 004°16'714.3
2017-Jun-25 03:30N 52°48' E 004°11'714.3
2017-Jun-25 03:00N 52°42' E 004°04'714.4
2017-Jun-25 02:30N 52°37' E 003°56'714.2
2017-Jun-25 02:00N 52°32' E 003°47'4614.7
2017-Jun-24 22:54N 51°50' E 003°19'0 0.0
2017-Jun-24 22:30N 51°50' E 003°19'4 7.0
2017-Jun-24 22:00N 51°47' E 003°17'8 8.8
2017-Jun-24 21:03N 51°39' E 003°21'111.1
2017-Jun-24 20:58N 51°38' E 003°21'511.2
2017-Jun-24 20:30N 51°33' E 003°25'510.2
2017-Jun-24 19:58N 51°29' E 003°30'510.9
2017-Jun-24 19:31N 51°26' E 003°37'4 7.0
2017-Jun-24 18:59N 51°28' E 003°42'0 0.0
2017-Jun-24 18:20N 51°28' E 003°42'0 0.0
2017-Jun-24 17:20N 51°28' E 003°42'0 0.0
2017-Jun-24 16:50N 51°28' E 003°42'0 0.0
2017-Jun-24 16:26N 51°28' E 003°42'0 0.0
2017-Jun-24 15:50N 51°28' E 003°42'0 0.0
2017-Jun-24 15:26N 51°28' E 003°42'0 0.0
2017-Jun-24 14:56N 51°28' E 003°42'0 0.0
2017-Jun-24 13:56N 51°28' E 003°42'0 0.0
2017-Jun-24 13:02N 51°28' E 003°42'0 0.0
2017-Jun-24 12:38N 51°28' E 003°42'0 0.0
2017-Jun-24 12:14N 51°28' E 003°42'0 0.0
2017-Jun-24 11:26N 51°28' E 003°42'0 0.0
2017-Jun-24 10:50N 51°28' E 003°42'0 0.0
2017-Jun-24 10:20N 51°28' E 003°42'0 0.0
2017-Jun-24 09:32N 51°28' E 003°42'0 0.0
2017-Jun-24 09:26N 51°28' E 003°42'0 0.0
2017-Jun-24 07:32N 51°28' E 003°42'0 0.2
2017-Jun-24 07:30N 51°28' E 003°42'0 0.6
2017-Jun-24 07:00N 51°28' E 003°42'4 7.7
2017-Jun-24 06:30N 51°24' E 003°43'4 7.4
2017-Jun-24 06:00N 51°21' E 003°46'0 0.0
2017-Jun-24 05:17N 51°21' E 003°46'0 0.0
2017-Jun-24 04:59N 51°21' E 003°46'0 0.0
2017-Jun-24 04:29N 51°21' E 003°46'0 0.0
2017-Jun-24 03:59N 51°21' E 003°46'0 0.0
2017-Jun-24 03:05N 51°21' E 003°46'0 0.0
2017-Jun-24 02:53N 51°21' E 003°46'0 0.0
2017-Jun-24 02:29N 51°21' E 003°46'0 0.0
2017-Jun-24 01:59N 51°21' E 003°46'0 0.0
2017-Jun-24 01:29N 51°21' E 003°46'0 0.0
2017-Jun-24 00:41N 51°21' E 003°46'0 0.0
2017-Jun-24 00:23N 51°21' E 003°46'0 0.0
2017-Jun-23 23:59N 51°21' E 003°46'0 0.0
2017-Jun-23 23:29N 51°21' E 003°46'0 0.0
2017-Jun-23 22:59N 51°21' E 003°46'0 0.0
2017-Jun-23 22:23N 51°21' E 003°46'0 0.0
2017-Jun-23 21:59N 51°21' E 003°46'0 0.0
2017-Jun-23 21:29N 51°21' E 003°46'0 0.0
2017-Jun-23 20:29N 51°21' E 003°46'0 0.0
2017-Jun-23 19:59N 51°21' E 003°46'0 0.0
2017-Jun-23 19:11N 51°21' E 003°46'0 0.0
2017-Jun-23 18:59N 51°21' E 003°46'0 0.0
2017-Jun-23 18:29N 51°21' E 003°46'0 0.0
2017-Jun-23 17:59N 51°21' E 003°46'0 0.0
2017-Jun-23 17:29N 51°21' E 003°46'0 0.0
2017-Jun-23 16:47N 51°21' E 003°46'0 0.0
2017-Jun-23 16:29N 51°21' E 003°46'0 0.0
2017-Jun-23 15:23N 51°21' E 003°46'0 0.2
2017-Jun-23 15:00N 51°21' E 003°46'9 9.2
2017-Jun-23 14:00N 51°26' E 003°34'510.5
2017-Jun-23 13:30N 51°30' E 003°28'5 9.5
2017-Jun-23 13:00N 51°34' E 003°24'917.4
2017-Jun-23 12:30N 51°42' E 003°18'1 2.6
2017-Jun-23 11:59N 51°43' E 003°17'5 9.8
2017-Jun-23 11:31N 51°47' E 003°21'3 5.7
2017-Jun-23 11:00N 51°49' E 003°24'0 0.0
2017-Jun-23 10:30N 51°49' E 003°24'0 0.2
2017-Jun-23 10:00N 51°49' E 003°24'0 0.1
2017-Jun-23 09:29N 51°49' E 003°24'0 0.1
2017-Jun-23 09:00N 51°49' E 003°24'0 0.0
2017-Jun-23 08:30N 51°49' E 003°24'0 0.0
2017-Jun-23 06:02N 51°49' E 003°24'0 0.0
2017-Jun-23 06:00N 51°49' E 003°24'0 0.0
2017-Jun-23 05:30N 51°49' E 003°24'0 0.2
2017-Jun-23 05:00N 51°49' E 003°24'0 0.0
2017-Jun-23 04:30N 51°49' E 003°24'0 0.0
2017-Jun-23 04:00N 51°49' E 003°24'0 0.0
2017-Jun-23 03:29N 51°49' E 003°24'0 0.0
2017-Jun-23 03:00N 51°49' E 003°24'0 0.0
2017-Jun-23 02:29N 51°49' E 003°24'0 0.0
2017-Jun-23 02:00N 51°49' E 003°24'0 0.0
2017-Jun-23 01:30N 51°49' E 003°24'0 0.0
2017-Jun-23 01:00N 51°49' E 003°24'0 0.0
2017-Jun-23 00:30N 51°49' E 003°24'0 0.0
2017-Jun-23 00:00N 51°49' E 003°24'0 0.0
2017-Jun-22 23:30N 51°49' E 003°24'0 0.1
2017-Jun-22 23:00N 51°49' E 003°24'0 0.0
2017-Jun-22 22:29N 51°49' E 003°24'0 0.2
2017-Jun-22 22:00N 51°49' E 003°24'0 0.0
2017-Jun-22 21:30N 51°49' E 003°24'0 0.0
2017-Jun-22 21:00N 51°49' E 003°24'0 0.0
2017-Jun-22 20:30N 51°49' E 003°24'0 0.0
2017-Jun-22 20:00N 51°49' E 003°24'0 0.0
2017-Jun-22 19:29N 51°49' E 003°24'0 0.0
2017-Jun-22 19:00N 51°48' E 003°24'0 0.4
2017-Jun-22 18:30N 51°49' E 003°24'0 0.0
2017-Jun-22 18:00N 51°49' E 003°24'0 0.0
2017-Jun-22 17:30N 51°49' E 003°24'0 0.0
2017-Jun-22 14:40N 51°49' E 003°24'0 0.0
2017-Jun-22 13:50N 51°49' E 003°24'0 0.0
2017-Jun-22 13:30N 51°49' E 003°24'0 0.0
2017-Jun-22 13:00N 51°49' E 003°24'0 0.0
2017-Jun-22 12:30N 51°49' E 003°24'0 0.0
2017-Jun-22 12:00N 51°49' E 003°24'0 0.1
2017-Jun-22 11:30N 51°49' E 003°24'0 0.0
2017-Jun-22 11:00N 51°49' E 003°24'0 0.1
2017-Jun-22 10:30N 51°49' E 003°24'0 0.0
2017-Jun-22 10:00N 51°49' E 003°24'0 0.1
2017-Jun-22 09:30N 51°48' E 003°24'0 0.0
2017-Jun-22 09:00N 51°48' E 003°24'0 0.1
2017-Jun-22 08:29N 51°48' E 003°24'0 0.0
2017-Jun-22 08:00N 51°48' E 003°24'0 0.2
2017-Jun-22 07:30N 51°49' E 003°24'4 8.8
2017-Jun-22 07:00N 51°51' E 003°18'1021.0
2017-Jun-22 06:30N 52°02' E 003°20'1017.3
2017-Jun-22 05:56N 52°11' E 003°23'0 0.0
2017-Jun-22 05:30N 52°11' E 003°23'610.6
2017-Jun-22 04:59N 52°17' E 003°24'511.1
2017-Jun-22 04:30N 52°22' E 003°27'611.5
2017-Jun-22 04:00N 52°27' E 003°28'612.1
2017-Jun-22 03:28N 52°34' E 003°30'611.8
2017-Jun-22 03:00N 52°39' E 003°33'611.9
2017-Jun-22 02:30N 52°43' E 003°40'611.9
2017-Jun-22 01:59N 52°48' E 003°46'1311.8
2017-Jun-22 00:53N 52°58' E 004°00'511.9
2017-Jun-22 00:26N 53°02' E 004°07'812.5
2017-Jun-21 23:50N 53°06' E 004°16'413.2
2017-Jun-21 23:30N 53°09' E 004°22'713.3
2017-Jun-21 23:00N 53°15' E 004°29'713.6
2017-Jun-21 22:30N 53°21' E 004°32'713.8
2017-Jun-21 22:00N 53°28' E 004°36'713.5
2017-Jun-21 21:30N 53°34' E 004°39'713.4
2017-Jun-21 21:00N 53°40' E 004°42'713.3
2017-Jun-21 20:30N 53°47' E 004°47'14112.8
2017-Jun-21 09:29N 55°50' E 006°45'713.0
2017-Jun-21 08:59N 55°55' E 006°52'613.0
2017-Jun-21 08:30N 56°00' E 006°58'713.0
2017-Jun-21 08:00N 56°06' E 007°04'158 9.9
2017-Jun-20 16:02N 57°59' E 010°27'010.8
2017-Jun-20 16:00N 57°60' E 010°28'510.7
2017-Jun-20 15:30N 58°02' E 010°36'510.7
2017-Jun-20 15:00N 58°05' E 010°45'1111.2
2017-Jun-20 14:00N 58°11' E 011°02'611.1
2017-Jun-20 13:29N 58°15' E 011°12'510.1
2017-Jun-20 13:00N 58°18' E 011°19'510.0
2017-Jun-20 12:30N 58°21' E 011°25'1 0.0
2017-Jun-19 11:20N 58°21' E 011°26'1 2.3
2017-Jun-19 10:57N 58°21' E 011°25'2 5.3
2017-Jun-19 10:30N 58°20' E 011°21'0 0.2
2017-Jun-19 09:58N 58°20' E 011°21'0 0.0
2017-Jun-19 09:28N 58°20' E 011°21'0 0.0
2017-Jun-19 08:58N 58°20' E 011°21'0 0.0
2017-Jun-19 08:28N 58°20' E 011°21'0 0.0
2017-Jun-19 07:59N 58°20' E 011°21'0 0.1
2017-Jun-19 07:28N 58°20' E 011°21'0 0.0
2017-Jun-19 06:58N 58°20' E 011°21'0 0.0
2017-Jun-19 06:28N 58°20' E 011°21'0 0.0
2017-Jun-19 05:58N 58°20' E 011°21'0 0.0
2017-Jun-19 05:28N 58°20' E 011°21'0 0.0
2017-Jun-19 04:58N 58°20' E 011°21'0 0.0
2017-Jun-19 04:28N 58°20' E 011°21'0 0.0
2017-Jun-19 03:58N 58°20' E 011°21'0 0.0
2017-Jun-19 03:28N 58°20' E 011°21'0 0.0
2017-Jun-19 02:58N 58°20' E 011°21'0 0.0
2017-Jun-19 02:28N 58°20' E 011°21'0 0.0
2017-Jun-19 01:58N 58°20' E 011°21'0 0.0
2017-Jun-19 01:28N 58°20' E 011°21'0 0.0
2017-Jun-19 00:58N 58°20' E 011°21'0 0.0
2017-Jun-19 00:28N 58°20' E 011°21'0 0.0
2017-Jun-18 23:58N 58°20' E 011°21'0 0.0
2017-Jun-18 23:28N 58°20' E 011°21'0 0.0
2017-Jun-18 22:58N 58°20' E 011°21'0 0.0
2017-Jun-18 22:28N 58°20' E 011°21'0 0.0
2017-Jun-18 21:58N 58°20' E 011°21'0 0.0
2017-Jun-18 21:28N 58°20' E 011°21'0 0.0
2017-Jun-18 20:58N 58°20' E 011°21'0 0.0
2017-Jun-18 20:28N 58°20' E 011°21'0 0.0
2017-Jun-18 19:58N 58°20' E 011°21'0 0.0
2017-Jun-18 19:28N 58°20' E 011°21'0 0.0
2017-Jun-18 18:58N 58°20' E 011°21'0 0.0
2017-Jun-18 18:28N 58°20' E 011°21'0 0.0
2017-Jun-18 17:58N 58°20' E 011°21'2 5.0
2017-Jun-18 17:30N 58°18' E 011°19'612.3
2017-Jun-18 17:00N 58°14' E 011°09'611.5
2017-Jun-18 16:30N 58°11' E 011°01'713.5
2017-Jun-18 16:00N 58°07' E 010°50'713.4
2017-Jun-18 15:30N 58°04' E 010°39'713.6
2017-Jun-18 15:00N 58°00' E 010°28'1613.5
2017-Jun-18 13:49N 57°51' E 010°03'15712.8
2017-Jun-18 01:32N 55°53' E 006°55'013.2
2017-Jun-18 01:30N 55°52' E 006°54'713.2
2017-Jun-18 00:58N 55°46' E 006°48'613.1
2017-Jun-18 00:30N 55°41' E 006°43'913.2
2017-Jun-17 23:49N 55°33' E 006°35'513.1
2017-Jun-17 23:25N 55°29' E 006°30'613.2
2017-Jun-17 22:59N 55°24' E 006°25'14813.0
2017-Jun-17 11:34N 53°11' E 004°32'114.5
2017-Jun-17 11:31N 53°10' E 004°31'714.3
2017-Jun-17 11:00N 53°04' E 004°25'713.8
2017-Jun-17 10:30N 52°58' E 004°19'714.1
2017-Jun-17 10:00N 52°51' E 004°15'714.0
2017-Jun-17 09:30N 52°46' E 004°08'714.0
2017-Jun-17 09:01N 52°40' E 004°02'714.1
2017-Jun-17 08:30N 52°34' E 003°56'714.1
2017-Jun-17 08:01N 52°27' E 003°53'714.4
2017-Jun-17 07:30N 52°20' E 003°52'713.7
2017-Jun-17 07:00N 52°13' E 003°53'713.8
2017-Jun-17 06:30N 52°06' E 003°55'510.2
2017-Jun-17 06:00N 52°01' E 003°58'611.4
2017-Jun-17 05:31N 51°59' E 004°06'611.1
2017-Jun-17 05:01N 51°56' E 004°14'4 8.0
2017-Jun-17 04:31N 51°53' E 004°18'0 1.0
2017-Jun-17 04:00N 51°53' E 004°18'0 0.0
2017-Jun-17 03:30N 51°53' E 004°18'0 0.0
2017-Jun-17 03:00N 51°53' E 004°18'0 0.0
2017-Jun-17 02:30N 51°53' E 004°18'0 0.0
2017-Jun-17 02:00N 51°53' E 004°18'0 0.0
2017-Jun-17 01:30N 51°53' E 004°18'0 0.0
2017-Jun-17 01:00N 51°53' E 004°18'0 0.0
2017-Jun-17 00:30N 51°53' E 004°18'0 0.0
2017-Jun-17 00:00N 51°53' E 004°18'0 0.0
2017-Jun-16 23:30N 51°53' E 004°18'0 0.0
2017-Jun-16 23:00N 51°53' E 004°18'0 0.0
2017-Jun-16 22:30N 51°53' E 004°18'0 0.0
2017-Jun-16 21:55N 51°53' E 004°18'0 0.0
2017-Jun-16 21:30N 51°53' E 004°18'0 0.0
2017-Jun-16 21:00N 51°53' E 004°18'0 0.0
2017-Jun-16 20:30N 51°53' E 004°18'0 0.0
2017-Jun-16 20:00N 51°53' E 004°18'0 0.0
2017-Jun-16 19:30N 51°53' E 004°18'0 0.0
2017-Jun-16 19:00N 51°53' E 004°18'0 0.0
2017-Jun-16 18:30N 51°53' E 004°18'0 0.0
2017-Jun-16 18:00N 51°53' E 004°18'0 0.0
2017-Jun-16 17:30N 51°53' E 004°18'0 0.0
2017-Jun-16 17:00N 51°53' E 004°18'0 0.0
2017-Jun-16 16:30N 51°53' E 004°18'0 0.0
2017-Jun-16 16:00N 51°53' E 004°18'0 0.0
2017-Jun-16 15:30N 51°53' E 004°18'0 0.0
2017-Jun-16 15:00N 51°53' E 004°18'0 0.0
2017-Jun-16 14:30N 51°53' E 004°18'  

Dump ship's entire track history